sensor_id;sensor_type;location;lat;lon;timestamp;temperature;humidity
24686;DHT22;12804;51.176;4.452;2023-02-28T00:00:33;2.20;99.90
24686;DHT22;12804;51.176;4.452;2023-02-28T00:02:59;2.30;99.90
24686;DHT22;12804;51.176;4.452;2023-02-28T00:05:26;2.30;99.90
24686;DHT22;12804;51.176;4.452;2023-02-28T00:07:53;2.20;99.90
24686;DHT22;12804;51.176;4.452;2023-02-28T00:10:24;2.20;99.90
24686;DHT22;12804;51.176;4.452;2023-02-28T00:12:53;2.10;99.90
24686;DHT22;12804;51.176;4.452;2023-02-28T00:15:20;2.10;99.90
24686;DHT22;12804;51.176;4.452;2023-02-28T00:17:46;2.10;99.90
24686;DHT22;12804;51.176;4.452;2023-02-28T00:20:13;2.10;99.90
24686;DHT22;12804;51.176;4.452;2023-02-28T00:22:44;2.10;99.90
24686;DHT22;12804;51.176;4.452;2023-02-28T00:25:12;2.10;99.90
24686;DHT22;12804;51.176;4.452;2023-02-28T00:27:40;2.00;99.90
24686;DHT22;12804;51.176;4.452;2023-02-28T00:30:08;2.00;99.90
24686;DHT22;12804;51.176;4.452;2023-02-28T00:32:36;2.00;99.90
24686;DHT22;12804;51.176;4.452;2023-02-28T00:35:03;2.00;99.90
24686;DHT22;12804;51.176;4.452;2023-02-28T00:37:30;2.00;99.90
24686;DHT22;12804;51.176;4.452;2023-02-28T00:39:56;1.90;99.90
24686;DHT22;12804;51.176;4.452;2023-02-28T00:42:22;1.80;99.90
24686;DHT22;12804;51.176;4.452;2023-02-28T00:44:48;1.80;99.90
24686;DHT22;12804;51.176;4.452;2023-02-28T00:47:14;1.80;99.90
24686;DHT22;12804;51.176;4.452;2023-02-28T00:49:40;1.80;99.90
24686;DHT22;12804;51.176;4.452;2023-02-28T00:52:08;1.80;99.90
24686;DHT22;12804;51.176;4.452;2023-02-28T00:54:35;1.90;99.90
24686;DHT22;12804;51.176;4.452;2023-02-28T00:57:01;1.90;99.90
24686;DHT22;12804;51.176;4.452;2023-02-28T00:59:27;1.90;99.90
24686;DHT22;12804;51.176;4.452;2023-02-28T01:01:52;1.90;99.90
24686;DHT22;12804;51.176;4.452;2023-02-28T01:04:18;1.90;99.90
24686;DHT22;12804;51.176;4.452;2023-02-28T01:06:44;1.90;99.90
24686;DHT22;12804;51.176;4.452;2023-02-28T01:09:11;1.80;99.90
24686;DHT22;12804;51.176;4.452;2023-02-28T01:11:37;1.80;99.90
24686;DHT22;12804;51.176;4.452;2023-02-28T01:14:03;1.70;99.90
24686;DHT22;12804;51.176;4.452;2023-02-28T01:16:29;1.70;99.90
24686;DHT22;12804;51.176;4.452;2023-02-28T01:18:56;1.70;99.90
24686;DHT22;12804;51.176;4.452;2023-02-28T01:21:22;1.80;99.90
24686;DHT22;12804;51.176;4.452;2023-02-28T01:23:48;1.80;99.90
24686;DHT22;12804;51.176;4.452;2023-02-28T01:26:17;1.70;99.90
24686;DHT22;12804;51.176;4.452;2023-02-28T01:28:43;1.70;99.90
24686;DHT22;12804;51.176;4.452;2023-02-28T01:31:10;1.80;99.90
24686;DHT22;12804;51.176;4.452;2023-02-28T01:33:37;1.80;99.90
24686;DHT22;12804;51.176;4.452;2023-02-28T01:36:09;1.80;99.90
24686;DHT22;12804;51.176;4.452;2023-02-28T01:38:36;1.70;99.90
24686;DHT22;12804;51.176;4.452;2023-02-28T01:41:02;1.60;99.90
24686;DHT22;12804;51.176;4.452;2023-02-28T01:43:58;1.50;99.90
24686;DHT22;12804;51.176;4.452;2023-02-28T01:46:24;1.50;99.90
24686;DHT22;12804;51.176;4.452;2023-02-28T01:49:09;1.50;99.90
24686;DHT22;12804;51.176;4.452;2023-02-28T01:51:46;1.50;99.90
24686;DHT22;12804;51.176;4.452;2023-02-28T01:54:25;1.50;99.90
24686;DHT22;12804;51.176;4.452;2023-02-28T01:57:03;1.40;99.90
24686;DHT22;12804;51.176;4.452;2023-02-28T01:59:52;1.40;99.90
24686;DHT22;12804;51.176;4.452;2023-02-28T02:02:21;1.40;99.90
24686;DHT22;12804;51.176;4.452;2023-02-28T02:05:03;1.30;99.90
24686;DHT22;12804;51.176;4.452;2023-02-28T02:07:35;1.30;99.90
24686;DHT22;12804;51.176;4.452;2023-02-28T02:10:10;1.30;99.90
24686;DHT22;12804;51.176;4.452;2023-02-28T02:15:19;1.20;99.90
24686;DHT22;12804;51.176;4.452;2023-02-28T02:17:54;1.20;99.90
24686;DHT22;12804;51.176;4.452;2023-02-28T02:34:42;1.30;99.90
24686;DHT22;12804;51.176;4.452;2023-02-28T02:39:58;1.20;99.90
24686;DHT22;12804;51.176;4.452;2023-02-28T02:42:31;1.20;99.90
24686;DHT22;12804;51.176;4.452;2023-02-28T02:45:07;1.10;99.90
24686;DHT22;12804;51.176;4.452;2023-02-28T02:47:35;1.20;99.90
24686;DHT22;12804;51.176;4.452;2023-02-28T02:50:06;1.20;99.90
24686;DHT22;12804;51.176;4.452;2023-02-28T02:52:40;1.20;99.90
24686;DHT22;12804;51.176;4.452;2023-02-28T02:55:08;1.30;99.90
24686;DHT22;12804;51.176;4.452;2023-02-28T02:57:48;1.20;99.90
24686;DHT22;12804;51.176;4.452;2023-02-28T03:00:18;1.20;99.90
24686;DHT22;12804;51.176;4.452;2023-02-28T03:02:47;1.20;99.90
24686;DHT22;12804;51.176;4.452;2023-02-28T03:05:35;1.20;99.90
24686;DHT22;12804;51.176;4.452;2023-02-28T03:08:05;1.20;99.90
24686;DHT22;12804;51.176;4.452;2023-02-28T03:10:37;1.20;99.90
24686;DHT22;12804;51.176;4.452;2023-02-28T03:13:11;1.20;99.90
24686;DHT22;12804;51.176;4.452;2023-02-28T03:21:55;1.10;99.90
24686;DHT22;12804;51.176;4.452;2023-02-28T03:24:56;1.10;99.90
24686;DHT22;12804;51.176;4.452;2023-02-28T03:27:31;1.10;99.90
24686;DHT22;12804;51.176;4.452;2023-02-28T03:30:03;1.10;99.90
24686;DHT22;12804;51.176;4.452;2023-02-28T03:32:38;1.30;99.90
24686;DHT22;12804;51.176;4.452;2023-02-28T03:35:19;1.30;99.90
24686;DHT22;12804;51.176;4.452;2023-02-28T03:40:37;1.30;99.90
24686;DHT22;12804;51.176;4.452;2023-02-28T03:43:09;1.40;99.90
24686;DHT22;12804;51.176;4.452;2023-02-28T03:45:38;1.40;99.90
24686;DHT22;12804;51.176;4.452;2023-02-28T03:49:06;1.40;99.90
24686;DHT22;12804;51.176;4.452;2023-02-28T03:51:23;1.30;99.90
24686;DHT22;12804;51.176;4.452;2023-02-28T03:54:14;1.40;99.90
24686;DHT22;12804;51.176;4.452;2023-02-28T03:57:12;1.40;99.90
24686;DHT22;12804;51.176;4.452;2023-02-28T03:59:47;1.40;99.90
24686;DHT22;12804;51.176;4.452;2023-02-28T04:02:14;1.50;99.90
24686;DHT22;12804;51.176;4.452;2023-02-28T04:04:40;1.50;99.90
24686;DHT22;12804;51.176;4.452;2023-02-28T04:07:11;1.60;99.90
24686;DHT22;12804;51.176;4.452;2023-02-28T04:09:38;1.60;99.90
24686;DHT22;12804;51.176;4.452;2023-02-28T04:12:04;1.70;99.90
24686;DHT22;12804;51.176;4.452;2023-02-28T04:14:30;1.70;99.90
24686;DHT22;12804;51.176;4.452;2023-02-28T04:16:56;1.90;99.90
24686;DHT22;12804;51.176;4.452;2023-02-28T04:19:22;2.00;99.90
24686;DHT22;12804;51.176;4.452;2023-02-28T04:21:52;2.00;99.90
24686;DHT22;12804;51.176;4.452;2023-02-28T04:24:21;2.10;99.90
24686;DHT22;12804;51.176;4.452;2023-02-28T04:26:52;2.30;99.90
24686;DHT22;12804;51.176;4.452;2023-02-28T04:29:30;2.30;99.90
24686;DHT22;12804;51.176;4.452;2023-02-28T04:31:58;2.40;99.90
24686;DHT22;12804;51.176;4.452;2023-02-28T04:34:25;2.60;99.90
24686;DHT22;12804;51.176;4.452;2023-02-28T04:36:52;2.50;99.90
24686;DHT22;12804;51.176;4.452;2023-02-28T04:39:21;2.40;99.90
24686;DHT22;12804;51.176;4.452;2023-02-28T04:41:47;2.30;99.90
24686;DHT22;12804;51.176;4.452;2023-02-28T04:44:13;2.40;99.90
24686;DHT22;12804;51.176;4.452;2023-02-28T04:46:40;2.50;99.90
24686;DHT22;12804;51.176;4.452;2023-02-28T04:49:06;2.50;99.90
24686;DHT22;12804;51.176;4.452;2023-02-28T04:51:32;2.60;99.90
24686;DHT22;12804;51.176;4.452;2023-02-28T04:53:58;2.70;99.90
24686;DHT22;12804;51.176;4.452;2023-02-28T04:56:23;2.70;99.90
24686;DHT22;12804;51.176;4.452;2023-02-28T04:58:49;2.80;99.90
24686;DHT22;12804;51.176;4.452;2023-02-28T05:01:18;3.00;99.90
24686;DHT22;12804;51.176;4.452;2023-02-28T05:03:45;3.00;99.90
24686;DHT22;12804;51.176;4.452;2023-02-28T05:06:12;3.00;99.90
24686;DHT22;12804;51.176;4.452;2023-02-28T05:08:38;2.90;99.90
24686;DHT22;12804;51.176;4.452;2023-02-28T05:11:08;2.90;99.90
24686;DHT22;12804;51.176;4.452;2023-02-28T05:13:37;2.80;99.90
24686;DHT22;12804;51.176;4.452;2023-02-28T05:16:03;2.90;99.90
24686;DHT22;12804;51.176;4.452;2023-02-28T05:18:29;2.90;99.90
24686;DHT22;12804;51.176;4.452;2023-02-28T05:20:55;2.90;99.90
24686;DHT22;12804;51.176;4.452;2023-02-28T05:23:21;3.10;99.90
24686;DHT22;12804;51.176;4.452;2023-02-28T05:25:48;3.00;99.90
24686;DHT22;12804;51.176;4.452;2023-02-28T05:28:13;3.10;99.90
24686;DHT22;12804;51.176;4.452;2023-02-28T05:30:40;3.10;99.90
24686;DHT22;12804;51.176;4.452;2023-02-28T05:33:05;3.10;99.90
24686;DHT22;12804;51.176;4.452;2023-02-28T05:35:31;3.10;99.90
24686;DHT22;12804;51.176;4.452;2023-02-28T05:37:57;3.10;99.90
24686;DHT22;12804;51.176;4.452;2023-02-28T05:40:23;3.10;99.90
24686;DHT22;12804;51.176;4.452;2023-02-28T05:42:50;3.10;99.90
24686;DHT22;12804;51.176;4.452;2023-02-28T05:45:16;3.10;99.90
24686;DHT22;12804;51.176;4.452;2023-02-28T05:47:43;3.20;99.90
24686;DHT22;12804;51.176;4.452;2023-02-28T05:50:09;3.30;99.90
24686;DHT22;12804;51.176;4.452;2023-02-28T05:52:36;3.20;99.90
24686;DHT22;12804;51.176;4.452;2023-02-28T05:55:03;3.20;99.90
24686;DHT22;12804;51.176;4.452;2023-02-28T05:57:29;3.20;99.90
24686;DHT22;12804;51.176;4.452;2023-02-28T05:59:55;3.30;99.90
24686;DHT22;12804;51.176;4.452;2023-02-28T06:02:21;3.30;99.90
24686;DHT22;12804;51.176;4.452;2023-02-28T06:04:47;3.20;99.90
24686;DHT22;12804;51.176;4.452;2023-02-28T06:07:13;3.20;99.90
24686;DHT22;12804;51.176;4.452;2023-02-28T06:09:40;3.20;99.90
24686;DHT22;12804;51.176;4.452;2023-02-28T06:12:06;3.30;99.90
24686;DHT22;12804;51.176;4.452;2023-02-28T06:14:33;3.40;99.90
24686;DHT22;12804;51.176;4.452;2023-02-28T06:17:00;3.30;99.90
24686;DHT22;12804;51.176;4.452;2023-02-28T06:19:26;3.20;99.90
24686;DHT22;12804;51.176;4.452;2023-02-28T06:21:53;3.30;99.90
24686;DHT22;12804;51.176;4.452;2023-02-28T06:24:20;3.30;99.90
24686;DHT22;12804;51.176;4.452;2023-02-28T06:26:46;3.30;99.90
24686;DHT22;12804;51.176;4.452;2023-02-28T06:29:12;3.30;99.90
24686;DHT22;12804;51.176;4.452;2023-02-28T06:31:46;3.40;99.90
24686;DHT22;12804;51.176;4.452;2023-02-28T06:34:13;3.30;99.90
24686;DHT22;12804;51.176;4.452;2023-02-28T06:36:40;3.30;99.90
24686;DHT22;12804;51.176;4.452;2023-02-28T06:39:06;3.30;99.90
24686;DHT22;12804;51.176;4.452;2023-02-28T06:41:33;3.50;99.90
24686;DHT22;12804;51.176;4.452;2023-02-28T06:44:04;3.40;99.90
24686;DHT22;12804;51.176;4.452;2023-02-28T06:46:32;3.50;99.90
24686;DHT22;12804;51.176;4.452;2023-02-28T06:48:58;3.50;99.90
24686;DHT22;12804;51.176;4.452;2023-02-28T06:51:23;3.50;99.90
24686;DHT22;12804;51.176;4.452;2023-02-28T06:53:50;3.60;99.90
24686;DHT22;12804;51.176;4.452;2023-02-28T06:56:17;3.70;99.90
24686;DHT22;12804;51.176;4.452;2023-02-28T06:58:47;3.50;99.90
24686;DHT22;12804;51.176;4.452;2023-02-28T07:01:14;3.60;99.90
24686;DHT22;12804;51.176;4.452;2023-02-28T07:03:40;3.50;99.90
24686;DHT22;12804;51.176;4.452;2023-02-28T07:06:06;3.50;99.90
24686;DHT22;12804;51.176;4.452;2023-02-28T07:08:33;3.60;99.90
24686;DHT22;12804;51.176;4.452;2023-02-28T07:10:59;3.60;99.90
24686;DHT22;12804;51.176;4.452;2023-02-28T07:13:25;3.70;99.90
24686;DHT22;12804;51.176;4.452;2023-02-28T07:18:21;3.90;99.90
24686;DHT22;12804;51.176;4.452;2023-02-28T07:20:47;4.10;99.90
24686;DHT22;12804;51.176;4.452;2023-02-28T07:23:13;4.20;99.90
24686;DHT22;12804;51.176;4.452;2023-02-28T07:25:39;4.20;99.90
24686;DHT22;12804;51.176;4.452;2023-02-28T07:28:04;4.10;99.90
24686;DHT22;12804;51.176;4.452;2023-02-28T07:30:30;4.10;99.90
24686;DHT22;12804;51.176;4.452;2023-02-28T07:32:56;4.10;99.90
24686;DHT22;12804;51.176;4.452;2023-02-28T07:35:22;4.20;99.90
24686;DHT22;12804;51.176;4.452;2023-02-28T07:37:48;4.30;99.90
24686;DHT22;12804;51.176;4.452;2023-02-28T07:40:15;4.30;99.90
24686;DHT22;12804;51.176;4.452;2023-02-28T07:42:41;4.40;99.90
24686;DHT22;12804;51.176;4.452;2023-02-28T07:45:09;4.50;99.90
24686;DHT22;12804;51.176;4.452;2023-02-28T07:47:40;4.50;99.90
24686;DHT22;12804;51.176;4.452;2023-02-28T07:50:09;4.70;99.90
24686;DHT22;12804;51.176;4.452;2023-02-28T07:52:36;4.60;99.90
24686;DHT22;12804;51.176;4.452;2023-02-28T07:55:04;4.70;99.90
24686;DHT22;12804;51.176;4.452;2023-02-28T07:57:30;4.70;99.90
24686;DHT22;12804;51.176;4.452;2023-02-28T07:59:56;4.70;99.90
24686;DHT22;12804;51.176;4.452;2023-02-28T08:02:21;4.60;99.90
24686;DHT22;12804;51.176;4.452;2023-02-28T08:04:47;4.70;99.90
24686;DHT22;12804;51.176;4.452;2023-02-28T08:07:14;4.80;99.90
24686;DHT22;12804;51.176;4.452;2023-02-28T08:09:40;5.00;99.90
24686;DHT22;12804;51.176;4.452;2023-02-28T08:12:07;4.90;99.90
24686;DHT22;12804;51.176;4.452;2023-02-28T08:14:34;4.90;99.90
24686;DHT22;12804;51.176;4.452;2023-02-28T08:17:00;5.00;99.90
24686;DHT22;12804;51.176;4.452;2023-02-28T08:19:26;5.10;99.90
24686;DHT22;12804;51.176;4.452;2023-02-28T08:21:52;5.30;99.90
24686;DHT22;12804;51.176;4.452;2023-02-28T08:24:18;5.40;99.90
24686;DHT22;12804;51.176;4.452;2023-02-28T08:26:44;5.50;99.90
24686;DHT22;12804;51.176;4.452;2023-02-28T08:29:09;5.20;99.90
24686;DHT22;12804;51.176;4.452;2023-02-28T08:31:35;5.30;99.90
24686;DHT22;12804;51.176;4.452;2023-02-28T08:34:09;5.40;99.90
24686;DHT22;12804;51.176;4.452;2023-02-28T08:36:36;5.40;99.90
24686;DHT22;12804;51.176;4.452;2023-02-28T08:39:02;5.40;99.90
24686;DHT22;12804;51.176;4.452;2023-02-28T08:41:28;5.40;99.90
24686;DHT22;12804;51.176;4.452;2023-02-28T08:43:54;5.40;99.90
24686;DHT22;12804;51.176;4.452;2023-02-28T08:46:21;5.30;99.90
24686;DHT22;12804;51.176;4.452;2023-02-28T08:48:47;5.10;99.90
24686;DHT22;12804;51.176;4.452;2023-02-28T08:51:17;5.20;99.90
24686;DHT22;12804;51.176;4.452;2023-02-28T08:53:52;5.20;99.90
24686;DHT22;12804;51.176;4.452;2023-02-28T08:56:19;5.40;99.90
24686;DHT22;12804;51.176;4.452;2023-02-28T08:58:46;5.30;99.90
24686;DHT22;12804;51.176;4.452;2023-02-28T09:01:20;5.20;99.90
24686;DHT22;12804;51.176;4.452;2023-02-28T09:03:48;5.40;99.90
24686;DHT22;12804;51.176;4.452;2023-02-28T09:06:16;5.40;99.90
24686;DHT22;12804;51.176;4.452;2023-02-28T09:08:42;5.70;99.90
24686;DHT22;12804;51.176;4.452;2023-02-28T09:11:09;5.90;99.90
24686;DHT22;12804;51.176;4.452;2023-02-28T09:13:35;6.00;99.90
24686;DHT22;12804;51.176;4.452;2023-02-28T09:16:05;5.80;99.90
24686;DHT22;12804;51.176;4.452;2023-02-28T09:18:33;5.50;99.90
24686;DHT22;12804;51.176;4.452;2023-02-28T09:20:58;5.40;99.90
24686;DHT22;12804;51.176;4.452;2023-02-28T09:23:25;5.40;99.90
24686;DHT22;12804;51.176;4.452;2023-02-28T09:25:52;5.40;99.90
24686;DHT22;12804;51.176;4.452;2023-02-28T09:28:19;5.20;99.90
24686;DHT22;12804;51.176;4.452;2023-02-28T09:30:48;5.40;99.90
24686;DHT22;12804;51.176;4.452;2023-02-28T09:33:15;5.50;99.90
24686;DHT22;12804;51.176;4.452;2023-02-28T09:35:41;5.70;99.90
24686;DHT22;12804;51.176;4.452;2023-02-28T09:38:09;5.80;99.90
24686;DHT22;12804;51.176;4.452;2023-02-28T09:43:15;5.70;99.90
24686;DHT22;12804;51.176;4.452;2023-02-28T09:46:14;5.70;99.90
24686;DHT22;12804;51.176;4.452;2023-02-28T09:48:40;5.60;99.90
24686;DHT22;12804;51.176;4.452;2023-02-28T09:53:53;5.40;99.90
24686;DHT22;12804;51.176;4.452;2023-02-28T09:56:24;5.40;99.90
24686;DHT22;12804;51.176;4.452;2023-02-28T09:59:01;5.40;99.90
24686;DHT22;12804;51.176;4.452;2023-02-28T10:01:46;5.50;99.90
24686;DHT22;12804;51.176;4.452;2023-02-28T10:04:47;5.80;99.90
24686;DHT22;12804;51.176;4.452;2023-02-28T10:15:58;6.10;99.90
24686;DHT22;12804;51.176;4.452;2023-02-28T10:18:29;6.10;99.90
24686;DHT22;12804;51.176;4.452;2023-02-28T10:20:56;6.10;99.90
24686;DHT22;12804;51.176;4.452;2023-02-28T10:23:33;6.00;99.90
24686;DHT22;12804;51.176;4.452;2023-02-28T10:26:09;6.10;99.90
24686;DHT22;12804;51.176;4.452;2023-02-28T10:28:36;6.10;99.90
24686;DHT22;12804;51.176;4.452;2023-02-28T10:31:02;6.40;99.90
24686;DHT22;12804;51.176;4.452;2023-02-28T10:33:31;6.70;99.90
24686;DHT22;12804;51.176;4.452;2023-02-28T10:35:57;7.10;99.90
24686;DHT22;12804;51.176;4.452;2023-02-28T10:38:32;7.70;99.90
24686;DHT22;12804;51.176;4.452;2023-02-28T10:41:10;7.80;99.90
24686;DHT22;12804;51.176;4.452;2023-02-28T10:43:38;7.70;99.90
24686;DHT22;12804;51.176;4.452;2023-02-28T10:46:13;8.30;99.90
24686;DHT22;12804;51.176;4.452;2023-02-28T10:48:44;8.30;99.90
24686;DHT22;12804;51.176;4.452;2023-02-28T10:51:15;8.30;99.90
24686;DHT22;12804;51.176;4.452;2023-02-28T10:53:52;8.40;99.90
24686;DHT22;12804;51.176;4.452;2023-02-28T10:56:23;8.60;99.90
24686;DHT22;12804;51.176;4.452;2023-02-28T10:59:30;8.90;99.90
24686;DHT22;12804;51.176;4.452;2023-02-28T11:01:56;9.60;99.90
24686;DHT22;12804;51.176;4.452;2023-02-28T11:07:18;10.20;99.90
24686;DHT22;12804;51.176;4.452;2023-02-28T11:09:52;9.00;99.90
24686;DHT22;12804;51.176;4.452;2023-02-28T11:12:26;8.80;99.90
24686;DHT22;12804;51.176;4.452;2023-02-28T11:15:01;8.80;99.90
24686;DHT22;12804;51.176;4.452;2023-02-28T11:17:30;9.20;99.90
24686;DHT22;12804;51.176;4.452;2023-02-28T11:19:59;9.40;99.90
24686;DHT22;12804;51.176;4.452;2023-02-28T11:22:32;9.80;99.90
24686;DHT22;12804;51.176;4.452;2023-02-28T11:25:34;10.60;99.90
24686;DHT22;12804;51.176;4.452;2023-02-28T11:28:02;11.00;98.40
24686;DHT22;12804;51.176;4.452;2023-02-28T11:30:37;10.90;97.40
24686;DHT22;12804;51.176;4.452;2023-02-28T11:33:29;10.90;97.00
24686;DHT22;12804;51.176;4.452;2023-02-28T11:36:03;11.20;95.40
24686;DHT22;12804;51.176;4.452;2023-02-28T11:38:29;11.40;94.20
24686;DHT22;12804;51.176;4.452;2023-02-28T11:41:12;11.40;93.90
24686;DHT22;12804;51.176;4.452;2023-02-28T11:44:10;10.80;93.60
24686;DHT22;12804;51.176;4.452;2023-02-28T11:46:43;10.50;94.30
24686;DHT22;12804;51.176;4.452;2023-02-28T11:52:10;11.80;93.00
24686;DHT22;12804;51.176;4.452;2023-02-28T11:54:58;11.60;92.00
24686;DHT22;12804;51.176;4.452;2023-02-28T12:06:10;10.60;90.70
24686;DHT22;12804;51.176;4.452;2023-02-28T12:11:51;11.50;91.50
24686;DHT22;12804;51.176;4.452;2023-02-28T12:14:22;11.40;91.70
24686;DHT22;12804;51.176;4.452;2023-02-28T12:17:02;11.60;90.50
24686;DHT22;12804;51.176;4.452;2023-02-28T12:19:49;10.90;90.20
24686;DHT22;12804;51.176;4.452;2023-02-28T12:22:29;11.40;91.10
24686;DHT22;12804;51.176;4.452;2023-02-28T12:25:20;11.60;88.40
24686;DHT22;12804;51.176;4.452;2023-02-28T12:27:48;11.60;90.00
24686;DHT22;12804;51.176;4.452;2023-02-28T12:30:24;12.50;88.80
24686;DHT22;12804;51.176;4.452;2023-02-28T12:33:14;12.60;86.50
24686;DHT22;12804;51.176;4.452;2023-02-28T12:35:51;11.60;84.60
24686;DHT22;12804;51.176;4.452;2023-02-28T12:38:25;10.80;87.80
24686;DHT22;12804;51.176;4.452;2023-02-28T12:40:59;10.60;88.20
24686;DHT22;12804;51.176;4.452;2023-02-28T12:43:40;10.50;88.20
24686;DHT22;12804;51.176;4.452;2023-02-28T12:46:32;10.20;88.80
24686;DHT22;12804;51.176;4.452;2023-02-28T12:49:05;10.10;90.60
24686;DHT22;12804;51.176;4.452;2023-02-28T12:51:32;10.00;90.20
24686;DHT22;12804;51.176;4.452;2023-02-28T12:54:12;10.20;90.00
24686;DHT22;12804;51.176;4.452;2023-02-28T12:57:06;10.30;90.50
24686;DHT22;12804;51.176;4.452;2023-02-28T13:09:56;9.50;90.60
24686;DHT22;12804;51.176;4.452;2023-02-28T13:12:22;9.40;91.10
24686;DHT22;12804;51.176;4.452;2023-02-28T13:14:49;9.30;91.60
24686;DHT22;12804;51.176;4.452;2023-02-28T13:17:24;9.10;92.00
24686;DHT22;12804;51.176;4.452;2023-02-28T13:24:56;9.30;92.40
24686;DHT22;12804;51.176;4.452;2023-02-28T13:27:31;9.30;91.90
24686;DHT22;12804;51.176;4.452;2023-02-28T13:29:57;9.20;92.10
24686;DHT22;12804;51.176;4.452;2023-02-28T13:32:28;9.50;92.70
24686;DHT22;12804;51.176;4.452;2023-02-28T13:39:50;9.70;91.90
24686;DHT22;12804;51.176;4.452;2023-02-28T13:47:40;9.70;92.70
24686;DHT22;12804;51.176;4.452;2023-02-28T13:50:21;9.80;92.70
24686;DHT22;12804;51.176;4.452;2023-02-28T13:52:57;10.00;92.20
24686;DHT22;12804;51.176;4.452;2023-02-28T14:01:15;11.00;91.30
24686;DHT22;12804;51.176;4.452;2023-02-28T14:06:33;11.50;89.10
24686;DHT22;12804;51.176;4.452;2023-02-28T14:11:45;12.60;88.80
24686;DHT22;12804;51.176;4.452;2023-02-28T14:17:15;12.40;88.00
24686;DHT22;12804;51.176;4.452;2023-02-28T14:19:46;11.90;86.80
24686;DHT22;12804;51.176;4.452;2023-02-28T14:38:55;14.50;81.20
24686;DHT22;12804;51.176;4.452;2023-02-28T14:41:31;15.30;79.00
24686;DHT22;12804;51.176;4.452;2023-02-28T14:43:59;15.10;77.00
24686;DHT22;12804;51.176;4.452;2023-02-28T14:46:39;14.80;77.70
24686;DHT22;12804;51.176;4.452;2023-02-28T14:49:11;14.60;75.80
24686;DHT22;12804;51.176;4.452;2023-02-28T14:51:38;14.50;75.70
24686;DHT22;12804;51.176;4.452;2023-02-28T14:54:04;13.90;75.70
24686;DHT22;12804;51.176;4.452;2023-02-28T14:56:36;14.10;76.60
24686;DHT22;12804;51.176;4.452;2023-02-28T14:59:03;13.10;79.50
24686;DHT22;12804;51.176;4.452;2023-02-28T15:01:29;12.40;80.40
24686;DHT22;12804;51.176;4.452;2023-02-28T15:03:59;10.80;84.00
24686;DHT22;12804;51.176;4.452;2023-02-28T15:06:27;10.00;87.70
24686;DHT22;12804;51.176;4.452;2023-02-28T15:09:15;9.50;91.50
24686;DHT22;12804;51.176;4.452;2023-02-28T15:11:46;8.90;91.40
24686;DHT22;12804;51.176;4.452;2023-02-28T15:14:21;8.50;92.90
24686;DHT22;12804;51.176;4.452;2023-02-28T15:16:56;8.30;92.80
24686;DHT22;12804;51.176;4.452;2023-02-28T15:19:37;7.70;93.70
24686;DHT22;12804;51.176;4.452;2023-02-28T15:22:11;7.30;94.80
24686;DHT22;12804;51.176;4.452;2023-02-28T15:24:48;7.20;95.40
24686;DHT22;12804;51.176;4.452;2023-02-28T15:27:29;7.00;95.50
24686;DHT22;12804;51.176;4.452;2023-02-28T15:30:19;7.00;96.00
24686;DHT22;12804;51.176;4.452;2023-02-28T15:33:02;7.10;96.80
24686;DHT22;12804;51.176;4.452;2023-02-28T15:35:30;7.10;97.00
24686;DHT22;12804;51.176;4.452;2023-02-28T15:38:22;6.80;97.30
24686;DHT22;12804;51.176;4.452;2023-02-28T15:40:58;6.70;98.00
24686;DHT22;12804;51.176;4.452;2023-02-28T15:43:27;6.80;98.20
24686;DHT22;12804;51.176;4.452;2023-02-28T15:46:02;6.80;98.30
24686;DHT22;12804;51.176;4.452;2023-02-28T15:48:31;6.70;99.10
24686;DHT22;12804;51.176;4.452;2023-02-28T15:53:34;6.60;99.40
24686;DHT22;12804;51.176;4.452;2023-02-28T15:56:04;6.70;99.50
24686;DHT22;12804;51.176;4.452;2023-02-28T15:58:30;6.70;99.90
24686;DHT22;12804;51.176;4.452;2023-02-28T16:01:26;6.70;99.90
24686;DHT22;12804;51.176;4.452;2023-02-28T16:03:57;6.70;99.90
24686;DHT22;12804;51.176;4.452;2023-02-28T16:08:49;6.50;99.90
24686;DHT22;12804;51.176;4.452;2023-02-28T16:11:17;6.60;99.90
24686;DHT22;12804;51.176;4.452;2023-02-28T16:13:43;6.60;99.90
24686;DHT22;12804;51.176;4.452;2023-02-28T16:16:18;6.70;99.90
24686;DHT22;12804;51.176;4.452;2023-02-28T16:18:45;6.70;99.90
24686;DHT22;12804;51.176;4.452;2023-02-28T16:21:11;6.80;99.90
24686;DHT22;12804;51.176;4.452;2023-02-28T16:23:36;7.00;99.90
24686;DHT22;12804;51.176;4.452;2023-02-28T16:26:03;6.90;99.90
24686;DHT22;12804;51.176;4.452;2023-02-28T16:28:39;6.80;99.90
24686;DHT22;12804;51.176;4.452;2023-02-28T16:31:06;6.60;99.90
24686;DHT22;12804;51.176;4.452;2023-02-28T16:33:33;6.70;99.90
24686;DHT22;12804;51.176;4.452;2023-02-28T16:35:59;6.60;99.90
24686;DHT22;12804;51.176;4.452;2023-02-28T16:38:26;6.70;99.90
24686;DHT22;12804;51.176;4.452;2023-02-28T16:40:54;6.80;99.90
24686;DHT22;12804;51.176;4.452;2023-02-28T16:43:23;6.60;99.90
24686;DHT22;12804;51.176;4.452;2023-02-28T16:45:57;6.60;99.90
24686;DHT22;12804;51.176;4.452;2023-02-28T16:48:24;6.30;99.90
24686;DHT22;12804;51.176;4.452;2023-02-28T16:50:50;6.30;99.90
24686;DHT22;12804;51.176;4.452;2023-02-28T16:53:16;6.20;99.90
24686;DHT22;12804;51.176;4.452;2023-02-28T16:55:42;6.20;99.90
24686;DHT22;12804;51.176;4.452;2023-02-28T16:58:15;6.00;99.90
24686;DHT22;12804;51.176;4.452;2023-02-28T17:00:43;5.90;99.90
24686;DHT22;12804;51.176;4.452;2023-02-28T17:03:24;6.10;99.90
24686;DHT22;12804;51.176;4.452;2023-02-28T17:05:51;6.00;99.90
24686;DHT22;12804;51.176;4.452;2023-02-28T17:08:17;5.90;99.90
24686;DHT22;12804;51.176;4.452;2023-02-28T17:10:43;5.70;99.90
24686;DHT22;12804;51.176;4.452;2023-02-28T17:13:09;5.80;99.90
24686;DHT22;12804;51.176;4.452;2023-02-28T17:15:35;5.80;99.90
24686;DHT22;12804;51.176;4.452;2023-02-28T17:18:01;5.70;99.90
24686;DHT22;12804;51.176;4.452;2023-02-28T17:20:27;5.70;99.90
24686;DHT22;12804;51.176;4.452;2023-02-28T17:22:53;5.50;99.90
24686;DHT22;12804;51.176;4.452;2023-02-28T17:25:20;5.40;99.90
24686;DHT22;12804;51.176;4.452;2023-02-28T17:27:46;5.40;99.90
24686;DHT22;12804;51.176;4.452;2023-02-28T17:30:20;5.50;99.90
24686;DHT22;12804;51.176;4.452;2023-02-28T17:32:47;5.60;99.90
24686;DHT22;12804;51.176;4.452;2023-02-28T17:35:13;5.70;99.90
24686;DHT22;12804;51.176;4.452;2023-02-28T17:37:39;6.00;99.90
24686;DHT22;12804;51.176;4.452;2023-02-28T17:40:06;6.00;99.90
24686;DHT22;12804;51.176;4.452;2023-02-28T17:42:32;6.00;99.90
24686;DHT22;12804;51.176;4.452;2023-02-28T17:44:58;6.00;99.90
24686;DHT22;12804;51.176;4.452;2023-02-28T17:47:24;6.00;99.90
24686;DHT22;12804;51.176;4.452;2023-02-28T17:49:49;6.00;99.90
24686;DHT22;12804;51.176;4.452;2023-02-28T17:52:15;5.90;99.90
24686;DHT22;12804;51.176;4.452;2023-02-28T17:54:44;5.70;99.90
24686;DHT22;12804;51.176;4.452;2023-02-28T17:57:15;5.70;99.90
24686;DHT22;12804;51.176;4.452;2023-02-28T17:59:42;5.60;99.90
24686;DHT22;12804;51.176;4.452;2023-02-28T18:02:09;5.50;99.90
24686;DHT22;12804;51.176;4.452;2023-02-28T18:04:36;5.30;99.90
24686;DHT22;12804;51.176;4.452;2023-02-28T18:07:02;5.20;99.90
24686;DHT22;12804;51.176;4.452;2023-02-28T18:09:28;5.10;99.90